Tiempo atmosférico en la estación meteorológica de Cuéllar, Segovia (795 m.)



Fecha
DESCASC
Temp. máxima en grados centígrados (hora)
DESCASC
Temp. mínima en grados centígrados (hora)
DESCASC
Temp. media en grados centígrados
DESCASC
Racha de viento máxima en m/sg (hora)
DESCASC
Velocidad máxima media en intervalos de 10 minutos(hora)
DESCASC
Precipitaciones diarias en mm
DESCASC
Precipitaciones de 00:00 a 06:00 en mm
DESCASC
Precipitaciones de 06:00 a 12:00 en mm
DESCASC
Precipitaciones de 12:00 a 18:00 en mm
DESCASC
Precipitaciones de 18:00 a 24:00 en mm
DESCASC
17-09-2020 27.2 (15:30) 14.6 (23:59) 20.9 16.67 (22:20) 9.17 (22:20) 2.2 0 0.2 0 2
15-09-2020 29.1 (18:00) 9.5 (08:10) 19.3 7.5 (02:00) 5.83 (00:40) 0.8 0.8 0 0 0
14-09-2020 30.3 (17:10) 8.6 (08:10) 19.4 18.06 (23:20) 6.67 (23:20) 1 0 0 0 1
13-09-2020 34.2 (17:20) 7.4 (00:00) 20.8 8.89 (17:20) 5 (17:40) 0 0 0 0 0
12-09-2020 33.5 (17:20) 7.9 (07:00) 20.7 9.17 (13:10) 6.67 (21:50) 0 0 0 0 0
11-09-2020 31.4 (16:00) 5.4 (00:00) 18.4 7.22 (14:50) 5 (21:30) 0 0 0 0 0
10-09-2020 31.2 (18:20) 8.6 (00:00) 19.9 8.06 (16:00) 5.83 (04:50) 0 0 0 0 0
09-09-2020 30.4 (18:10) 3.4 (07:10) 16.9 6.94 (23:20) 5.56 (23:59) 0 0 0 0 0
08-09-2020 29.2 (17:40) 6 (00:00) 17.6 10.56 (00:20) 8.06 (00:20) 0 0 0 0 0
07-09-2020 24.4 (17:00) 7.4 (07:00) 15.9 11.11 (18:00) 8.06 (22:40) 0 0 0 0 0
06-09-2020 28.7 (15:30) 12.9 (00:00) 20.8 11.94 (03:00) 9.44 (03:10) 0 0 0 0 0
05-09-2020 34.3 (17:10) 6.2 (00:00) 20.2 12.22 (22:10) 9.17 (22:20) 0 0 0 0 0
04-09-2020 34.2 (16:50) 5.8 (00:00) 20 10.28 (13:00) 4.17 (14:00) 0 0 0 0 0
03-09-2020 32.7 (18:50) 3.4 (00:00) 18.1 6.67 (17:40) 3.33 (00:20) 0 0 0 0 0
02-09-2020 29.7 (17:50) 9.9 (00:00) 19.8 9.17 (01:10) 6.94 (00:10) 0 0 0 0 0
01-09-2020 28.1 (19:10) 7.1 (00:00) 17.6 9.72 (23:10) 7.5 (23:10) 0 0 0 0 0
31-08-2020 25.6 (17:20) -0.6 (-00:0) 12.5 7.22 (17:00) 4.17 (16:00) 0 0 0 0 0
30-08-2020 21.5 (18:00) -0.8 (-00:0) 10.3 7.78 (18:10) 5.56 (23:10) 0 0 0 0 0
29-08-2020 22.1 (16:00) 3.9 (00:00) 13 11.94 (20:50) 7.5 (21:00) 0 0 0 0 0
28-08-2020 28.3 (16:30) 10.2 (00:00) 19.2 10.83 (22:50) 7.78 (23:00) 0 0 0 0 0
27-08-2020 34.5 (17:50) 8.2 (00:00) 21.3 8.06 (23:59) 5.83 (23:50) 0 0 0 0 0
26-08-2020 35 (17:30) 6.5 (00:00) 20.8 7.78 (18:30) 4.44 (15:30) 0 0 0 0 0
25-08-2020 35 (17:50) 6.7 (00:00) 20.8 9.17 (14:40) 5 (16:00) 0 0 0 0 0
24-08-2020 32.6 (18:00) 9.1 (06:40) 20.8 7.5 (12:10) 3.33 (21:40) 0 0 0 0 0
23-08-2020 31.7 (18:30) 5.7 (00:00) 18.7 8.06 (21:30) 5.83 (21:30) 0 0 0 0 0
22-08-2020 30.1 (18:30) 5.4 (00:00) 17.8 8.33 (17:40) 5.56 (23:10) 0 0 0 0 0
21-08-2020 27.6 (14:30) 13.6 (07:20) 20.6 10.56 (17:10) 6.67 (17:10) 0 0 0 0 0
20-08-2020 33.3 (17:50) 5.9 (00:00) 19.6 12.5 (15:40) 7.78 (16:40) 0 0 0 0 0

Gráficas

Temp. máximas Temp. mínimas Temp. medias Precipitaciones Rachas de viento máximas Velocidades máximas media en intervalos de 10 minutos

Datos horarios

Fecha y hora oficial Temperatura (ºC) Velocidad del viento (km/h) Dirección del viento Racha (km/h) Dirección de racha Precipitación (mm) Presión (hPa) Tendencia (hPa) Humedad (%)
2020-09-18 23:00:00 -- -- -- -- -- -- -- -- --
2020-09-18 22:00:00 -- -- -- -- -- -- -- -- --
2020-09-18 21:00:00 11.5 7 Este 10 Sudeste 0 -- -- 96
2020-09-18 20:00:00 12.9 8 Sudeste 27 Sudeste 1.4 -- -- 94
2020-09-18 19:00:00 14.6 11 Sur 41 Sudeste 0.8 -- -- 91
2020-09-18 18:00:00 19.1 24 Sur 45 Sur 0 -- -- 60
2020-09-18 17:00:00 22.1 22 Sur 35 Sur 0 -- -- 49
2020-09-18 16:00:00 22.4 18 Sur 35 Sur 0 -- -- 48
2020-09-18 15:00:00 22.8 18 Sur 36 Sudoeste 0 -- -- 48
2020-09-18 14:00:00 21.2 21 Sur 36 Sur 0 -- -- 56
2020-09-18 13:00:00 19.3 14 Sudeste 26 Sudeste 0 -- -- 73
2020-09-18 12:00:00 16.8 10 Sudeste 17 Sudeste 0.2 -- -- 89
2020-09-18 11:00:00 14 0 Calma 19 Este 0.6 -- -- 97
2020-09-18 10:00:00 12.7 13 Este 19 Este 2 -- -- 98
2020-09-18 09:00:00 12.6 6 Oeste 26 Oeste 1.2 -- -- 98
2020-09-18 08:00:00 12.4 4 Este 20 Sudeste 0.4 -- -- 98
2020-09-18 07:00:00 12.7 8 Este 14 Nordeste 3.4 -- -- 98
2020-09-18 06:00:00 13.3 11 Sudoeste 39 Sudoeste 4.4 -- -- 97
2020-09-18 05:00:00 15.1 0 Calma 24 Este 2.4 -- -- 96
2020-09-18 04:00:00 15.3 6 Este 20 Este 0 -- -- 93
2020-09-18 03:00:00 15.3 11 Este 17 Este 0 -- -- 93
2020-09-18 02:00:00 15.1 9 Este 21 Nordeste 0.2 -- -- 93
2020-09-18 01:00:00 15 13 Este 18 Este 0.4 -- -- 93
2020-09-18 00:00:00 14.6 4 Este 13 Este 1 -- -- 94
2020-09-17 23:00:00 15.3 10 Nordeste 60 Sur 1 -- -- 88
2020-09-17 22:00:00 21 9 Sudeste 27 Este 0 -- -- 52
2020-09-17 21:00:00 22.2 11 Sudeste 19 Sudeste 0 -- -- 56
2020-09-17 20:00:00 22.9 8 Sudeste 26 Sur 0 -- -- 53
2020-09-17 19:00:00 24.2 17 Sudeste 32 Sur 0 -- -- 50
2020-09-17 18:00:00 24.9 24 Sur 39 Sur 0 -- -- 47
2020-09-17 17:00:00 25.7 19 Sur 36 Sur 0 -- -- 42
2020-09-17 16:00:00 26.4 22 Sur 35 Sur 0 -- -- 40
2020-09-17 15:00:00 27 17 Sur 32 Sudeste 0 -- -- 41
2020-09-17 14:00:00 26.1 18 Sur 31 Sudeste 0 -- -- 47
2020-09-17 13:00:00 25.5 15 Este 27 Este 0 -- -- 48
2020-09-17 12:00:00 22.4 12 Sudeste 26 Este 0 -- -- 60
2020-09-17 11:00:00 20.7 8 Este 13 Este 0 -- -- 68
2020-09-17 10:00:00 17.8 4 Sudeste 12 Nordeste 0 -- -- 83
2020-09-17 09:00:00 16.8 7 Este 11 Este 0.2 -- -- 82
2020-09-17 08:00:00 16.1 2 Este 10 Norte 0 -- -- 82
2020-09-17 07:00:00 17.1 9 Nordeste 12 Nordeste 0 -- -- 76
2020-09-17 06:00:00 16.4 2 Este 10 Este 0 -- -- 82
2020-09-17 05:00:00 17 9 Este 13 Nordeste 0 -- -- 79
2020-09-17 04:00:00 16.6 6 Nordeste 10 Este 0 -- -- 78
2020-09-17 03:00:00 18.3 3 Sur 23 Sudoeste 0 -- -- 68
2020-09-17 02:00:00 18.4 5 Norte 32 Este 0 -- -- 71
2020-09-17 01:00:00 20.7 14 Sudeste 28 Sudeste 0 -- -- 54
2020-09-17 00:00:00 19.2 5 Nordeste 26 Sudoeste 0 -- -- 51
2020-09-16 23:00:00 17.4 4 Este 8 Este 0 -- -- 60
2020-09-16 22:00:00 17.6 2 Nordeste 6 Este 0 -- -- 58
2020-09-16 21:00:00 21.5 0 Calma 6 Sudoeste 0 -- -- 45
2020-09-16 20:00:00 25.1 5 Sudeste 18 Sudeste 0 -- -- 36
2020-09-16 19:00:00 28.5 14 Sudeste 23 Sudeste 0 -- -- 31
2020-09-16 18:00:00 30.9 8 Sudeste 23 Sudeste 0 -- -- 28
2020-09-16 17:00:00 31.1 6 Sudoeste 17 Nordeste 0 -- -- 31
2020-09-16 16:00:00 30.4 8 Este 21 Sudeste 0 -- -- 31
2020-09-16 15:00:00 29.4 5 Oeste 15 Norte 0 -- -- 32
2020-09-16 14:00:00 29.4 5 Nordeste 17 Este 0 -- -- 33
2020-09-16 13:00:00 28.3 6 Este 15 Este 0 -- -- 37
2020-09-16 12:00:00 26.2 7 Nordeste 16 Este 0 -- -- 41
2020-09-16 11:00:00 23.2 5 Este 10 Este 0 -- -- 52
2020-09-16 10:00:00 17 2 Sudeste 4 Este 0 -- -- 75
2020-09-16 09:00:00 10.2 2 Sudeste 8 Este 0 -- -- 92
2020-09-16 08:00:00 6.1 5 Este 6 Este 0 -- -- 96
2020-09-16 07:00:00 7.1 4 Este 6 Este 0 -- -- 95
2020-09-16 06:00:00 7.7 4 Sudeste 6 Este 0 -- -- 94
2020-09-16 05:00:00 8.8 4 Sudeste 8 Este 0 -- -- 95
2020-09-16 04:00:00 9.2 3 Este 6 Este 0 -- -- 91
2020-09-16 03:00:00 10.1 5 Este 8 Sudeste 0 -- -- 88
2020-09-16 02:00:00 10.7 2 Nordeste 6 Este 0 -- -- 88
2020-09-16 01:00:00 12.5 0 Calma 6 Sudoeste 0 -- -- 84
2020-09-16 00:00:00 14.4 0 Calma 6 Este 0 -- -- 79
2020-09-15 23:00:00 16.9 3 Este 9 Este 0 -- -- 68
2020-09-15 22:00:00 19.3 5 Este 12 Este 0 -- -- 59
2020-09-15 21:00:00 20.3 2 Noroeste 9 Norte 0 -- -- 59
2020-09-15 20:00:00 25.1 0 Calma 11 Sudoeste 0 -- -- 43
2020-09-15 19:00:00 26.7 8 Sudoeste 20 Sudoeste 0 -- -- 38
2020-09-15 18:00:00 29.1 7 Oeste 22 Oeste 0 -- -- 35
2020-09-15 17:00:00 28.4 12 Oeste 24 Sudoeste 0 -- -- 36
2020-09-15 16:00:00 28.3 10 Oeste 23 Oeste 0 -- -- 40
2020-09-15 15:00:00 27.4 11 Sudoeste 24 Oeste 0 -- -- 42
2020-09-15 14:00:00 26.3 11 Sudoeste 20 Sur 0 -- -- 45
2020-09-15 13:00:00 25.3 10 Oeste 17 Sudoeste 0 -- -- 51
2020-09-15 12:00:00 23.4 7 Sudoeste 15 Sudoeste 0 -- -- 64
2020-09-15 11:00:00 21.4 5 Sudoeste 12 Sudoeste 0 -- -- 70
2020-09-15 10:00:00 18.8 3 Sudeste 6 Sudeste 0 -- -- 77
2020-09-15 09:00:00 13.6 4 Este 6 Este 0 -- -- 96
2020-09-15 08:00:00 9.6 0 Calma 3 Nordeste 0 -- -- 96
2020-09-15 07:00:00 11.6 0 Calma 6 Nordeste 0 -- -- 96
2020-09-15 06:00:00 13.2 4 Nordeste 10 Este 0 -- -- 94
2020-09-15 05:00:00 13.5 4 Este 12 Este 0 -- -- 92
2020-09-15 04:00:00 15.3 2 Este 22 Nordeste 0 -- -- 89
2020-09-15 03:00:00 15.2 12 Este 26 Sudoeste 0.2 -- -- 90
2020-09-15 02:00:00 15.9 13 Sudoeste 27 Oeste 0 -- -- 85
2020-09-15 01:00:00 16.1 15 Noroeste 27 Norte 0.6 -- -- 81
2020-09-15 00:00:00 16 17 Oeste 65 Sudoeste 1 -- -- 83
2020-09-14 23:00:00 20 4 Oeste 12 Norte 0 -- -- 52
2020-09-14 22:00:00 20.2 3 Norte 13 Sur 0 -- -- 47
2020-09-14 21:00:00 21.8 8 Este 17 Sur 0 -- -- 45
2020-09-14 20:00:00 25.5 9 Sudeste 28 Sudeste 0 -- -- 38
2020-09-14 19:00:00 28.4 15 Sudeste 30 Sur 0 -- -- 34
2020-09-14 18:00:00 29.1 13 Sur 24 Sur 0 -- -- 32
2020-09-14 17:00:00 29.7 6 Sur 30 Sur 0 -- -- 31
2020-09-14 16:00:00 28.6 15 Sur 30 Sur 0 -- -- 33
2020-09-14 15:00:00 28.4 13 Sudoeste 33 Sudoeste 0 -- -- 34
2020-09-14 14:00:00 27.5 9 Sur 27 Sur 0 -- -- 35
2020-09-14 13:00:00 27 6 Sudoeste 14 Sudoeste 0 -- -- 36
2020-09-14 12:00:00 25.9 6 Este 12 Este 0 -- -- 38
2020-09-14 11:00:00 26 5 Sudeste 10 Sudeste 0 -- -- 39
2020-09-14 10:00:00 24.2 0 Calma 6 Este 0 -- -- 46
2020-09-14 09:00:00 13.7 4 Sudeste 9 Este 0 -- -- 70
2020-09-14 08:00:00 8.7 3 Sudeste 8 Este 0 -- -- 80
2020-09-14 07:00:00 9 4 Este 9 Este 0 -- -- 77
2020-09-14 06:00:00 9.4 0 Calma 6 Sudeste 0 -- -- 75
2020-09-14 05:00:00 10.8 5 Este 8 Este 0 -- -- 70
2020-09-14 04:00:00 12.1 3 Este 9 Sudeste 0 -- -- 68
2020-09-14 03:00:00 12 3 Este 7 Este 0 -- -- 69
2020-09-14 02:00:00 13.7 2 Este 11 Este 0 -- -- 63
2020-09-14 01:00:00 13.7 6 Este 10 Este 0 -- -- 62
2020-09-14 00:00:00 16.8 5 Este 12 Nordeste 0 -- -- 53
2020-09-13 23:00:00 16.7 5 Este 14 Este 0 -- -- 51
2020-09-13 22:00:00 18.6 4 Nordeste 6 Norte 0 -- -- 49
2020-09-13 21:00:00 25.4 4 Sur 17 Sur 0 -- -- 33
2020-09-13 20:00:00 29 9 Sur 27 Sudeste 0 -- -- 28
2020-09-13 19:00:00 32.4 11 Sur 31 Sudeste 0 -- -- 25
2020-09-13 18:00:00 32.2 15 Sur 32 Sur 0 -- -- 25
2020-09-13 17:00:00 32.7 8 Sur 31 Sudeste 0 -- -- 24
2020-09-13 16:00:00 32 12 Sur 28 Sur 0 -- -- 24
2020-09-13 15:00:00 31.7 14 Sur 28 Sur 0 -- -- 25
2020-09-13 14:00:00 33.2 11 Sur 30 Sudeste 0 -- -- 23
2020-09-13 13:00:00 31.7 11 Sur 27 Sur 0 -- -- 25
2020-09-13 12:00:00 31.3 6 Sur 13 Sudoeste 0 -- -- 28
2020-09-13 11:00:00 27.9 5 Este 13 Este 0 -- -- 34
2020-09-13 10:00:00 22.4 5 Este 8 Este 0 -- -- 46
2020-09-13 09:00:00 13.5 5 Este 8 Este 0 -- -- 62
2020-09-13 08:00:00 8.4 6 Este 9 Este 0 -- -- 75
2020-09-13 07:00:00 7.5 6 Este 8 Este 0 -- -- 73
2020-09-13 06:00:00 8.3 6 Este 10 Nordeste 0 -- -- 69
2020-09-13 05:00:00 9.5 6 Este 13 Nordeste 0 -- -- 69
2020-09-13 04:00:00 11.1 4 Este 13 Nordeste 0 -- -- 58
2020-09-13 03:00:00 11.7 7 Este 14 Nordeste 0 -- -- 55
2020-09-13 02:00:00 16.2 6 Este 12 Este 0 -- -- 54
2020-09-13 01:00:00 17.5 11 Nordeste 18 Nordeste 0 -- -- 43
2020-09-13 00:00:00 19.7 13 Nordeste 30 Norte 0 -- -- 34
2020-09-12 23:00:00 20.1 19 Norte 26 Norte 0 -- -- 32
2020-09-12 22:00:00 21.6 23 Norte 27 Nordeste 0 -- -- 27
2020-09-12 21:00:00 22.9 19 Norte 23 Norte 0 -- -- 24
2020-09-12 20:00:00 27.9 10 Norte 18 Norte 0 -- -- 19
2020-09-12 19:00:00 32.5 11 Nordeste 22 Norte 0 -- -- 16
2020-09-12 18:00:00 33.2 13 Norte 23 Nordeste 0 -- -- 16
2020-09-12 17:00:00 32.8 10 Norte 26 Nordeste 0 -- -- 17
2020-09-12 16:00:00 32.3 9 Nordeste 24 Norte 0 -- -- 18
2020-09-12 15:00:00 31.5 14 Norte 29 Norte 0 -- -- 18
2020-09-12 14:00:00 30.9 15 Norte 33 Nordeste 0 -- -- 19
2020-09-12 13:00:00 30.6 16 Nordeste 27 Nordeste 0 -- -- 21
2020-09-12 12:00:00 28.9 11 Este 20 Nordeste 0 -- -- 30
2020-09-12 11:00:00 25.2 8 Este 12 Este 0 -- -- 41
2020-09-12 10:00:00 19.2 5 Este 10 Este 0 -- -- 54
2020-09-12 09:00:00 13.1 4 Sudeste 14 Este 0 -- -- 71
2020-09-12 08:00:00 13.2 9 Nordeste 15 Nordeste 0 -- -- 69
2020-09-12 07:00:00 7.9 5 Sudeste 9 Nordeste 0 -- -- 83
2020-09-12 06:00:00 11.4 7 Este 20 Nordeste 0 -- -- 66
2020-09-12 05:00:00 14.1 11 Nordeste 19 Nordeste 0 -- -- 63
2020-09-12 04:00:00 13.4 5 Nordeste 14 Nordeste 0 -- -- 62
2020-09-12 03:00:00 10.8 5 Este 8 Norte 0 -- -- 63
2020-09-12 02:00:00 12.3 0 Calma 13 Nordeste 0 -- -- 59
2020-09-12 01:00:00 14.6 11 Nordeste 24 Este 0 -- -- 51
2020-09-12 00:00:00 17 10 Nordeste 17 Nordeste 0 -- -- 47
2020-09-11 23:00:00 19 10 Nordeste 23 Nordeste 0 -- -- 36
2020-09-11 22:00:00 20 18 Nordeste 25 Nordeste 0 -- -- 32
2020-09-11 21:00:00 21.9 15 Norte 17 Norte 0 -- -- 32
2020-09-11 20:00:00 26.6 9 Norte 14 Nordeste 0 -- -- 28
2020-09-11 19:00:00 30.4 11 Norte 22 Norte 0 -- -- 25
2020-09-11 18:00:00 30.7 10 Oeste 25 Norte 0 -- -- 26
2020-09-11 17:00:00 31 14 Norte 24 Norte 0 -- -- 26
2020-09-11 16:00:00 31.4 8 Norte 22 Norte 0 -- -- 26
2020-09-11 15:00:00 29.8 5 Noroeste 26 Noroeste 0 -- -- 27
2020-09-11 14:00:00 29.4 6 Norte 19 Oeste 0 -- -- 28
2020-09-11 13:00:00 28.3 9 Norte 17 Noroeste 0 -- -- 28
2020-09-11 12:00:00 27.9 4 Este 13 Nordeste 0 -- -- 29
2020-09-11 11:00:00 23.3 8 Este 14 Este 0 -- -- 40
2020-09-11 10:00:00 18 5 Este 9 Este 0 -- -- 53
2020-09-11 09:00:00 11.8 3 Este 8 Sudeste 0 -- -- 68
2020-09-11 08:00:00 6.2 7 Este 9 Este 0 -- -- 85
2020-09-11 07:00:00 5.9 4 Este 10 Este 0 -- -- 84
2020-09-11 06:00:00 7.1 5 Este 6 Nordeste 0 -- -- 80
2020-09-11 05:00:00 8.8 0 Calma 6 Este 0 -- -- 73
2020-09-11 04:00:00 11.1 7 Sudeste 12 Sudeste 0 -- -- 67
2020-09-11 03:00:00 10.7 4 Este 15 Nordeste 0 -- -- 67
2020-09-11 02:00:00 12.7 5 Nordeste 11 Nordeste 0 -- -- 63
2020-09-11 01:00:00 13.6 4 Este 21 Este 0 -- -- 60
2020-09-11 00:00:00 15.8 9 Este 13 Este 0 -- -- 54
2020-09-10 23:00:00 18.4 9 Nordeste 24 Nordeste 0 -- -- 46
2020-09-10 22:00:00 19.7 17 Norte 21 Norte 0 -- -- 41
2020-09-10 21:00:00 21.8 14 Norte 16 Norte 0 -- -- 37
2020-09-10 20:00:00 26.8 8 Norte 19 Nordeste 0 -- -- 28
2020-09-10 19:00:00 30.1 5 Nordeste 19 Nordeste 0 -- -- 26
2020-09-10 18:00:00 29.4 11 Noroeste 27 Este 0 -- -- 24
2020-09-10 17:00:00 29.6 9 Este 22 Nordeste 0 -- -- 26
2020-09-10 16:00:00 29.7 15 Nordeste 29 Nordeste 0 -- -- 24
2020-09-10 15:00:00 29.3 6 Nordeste 23 Nordeste 0 -- -- 27
2020-09-10 14:00:00 28 5 Noroeste 22 Norte 0 -- -- 31
2020-09-10 13:00:00 27.8 10 Nordeste 23 Nordeste 0 -- -- 34
2020-09-10 12:00:00 26.3 10 Nordeste 21 Nordeste 0 -- -- 37
2020-09-10 11:00:00 24.3 7 Norte 13 Nordeste 0 -- -- 41
2020-09-10 10:00:00 18.2 3 Sudoeste 8 Sudoeste 0 -- -- 58
2020-09-10 09:00:00 13.5 3 Sudeste 10 Este 0 -- -- 71
2020-09-10 08:00:00 8.6 6 Este 16 Nordeste 0 -- -- 87
2020-09-10 07:00:00 11.9 9 Este 14 Este 0 -- -- 72
2020-09-10 06:00:00 13.3 9 Este 14 Nordeste 0 -- -- 72
2020-09-10 05:00:00 13.1 8 Este 25 Norte 0 -- -- 72
2020-09-10 04:00:00 14.3 20 Norte 25 Norte 0 -- -- 70
2020-09-10 03:00:00 14.4 7 Norte 21 Norte 0 -- -- 67
2020-09-10 02:00:00 15.3 15 Norte 18 Norte 0 -- -- 64
2020-09-10 01:00:00 16.9 10 Nordeste 25 Norte 0 -- -- 59
2020-09-10 00:00:00 18.5 20 Norte 25 Norte 0 -- -- 53
2020-09-09 23:00:00 19.2 19 Norte 24 Norte 0 -- -- 44
2020-09-09 22:00:00 19.6 11 Norte 16 Noroeste 0 -- -- 37
2020-09-09 21:00:00 20.7 10 Noroeste 13 Norte 0 -- -- 35
2020-09-09 20:00:00 26.5 7 Norte 18 Norte 0 -- -- 26
2020-09-09 19:00:00 29 9 Norte 24 Norte 0 -- -- 23
2020-09-09 18:00:00 29.9 10 Norte 20 Este 0 -- -- 23
2020-09-09 17:00:00 28.9 14 Noroeste 24 Nordeste 0 -- -- 23
2020-09-09 16:00:00 28.5 9 Noroeste 23 Nordeste 0 -- -- 24
2020-09-09 15:00:00 28.3 9 Nordeste 21 Nordeste 0 -- -- 24
2020-09-09 14:00:00 28.2 8 Nordeste 19 Norte 0 -- -- 26
2020-09-09 13:00:00 27.2 4 Oeste 14 Sudeste 0 -- -- 30
2020-09-09 12:00:00 25.1 3 Sur 8 Sudeste 0 -- -- 31
2020-09-09 11:00:00 21.4 5 Este 12 Este 0 -- -- 36
2020-09-09 10:00:00 15.9 8 Este 11 Este 0 -- -- 49
2020-09-09 09:00:00 9.9 4 Este 8 Este 0 -- -- 62
2020-09-09 08:00:00 4.4 5 Este 15 Este 0 -- -- 78
2020-09-09 07:00:00 3.9 4 Nordeste 9 Este 0 -- -- 77
2020-09-09 06:00:00 5.1 4 Nordeste 10 Este 0 -- -- 78
2020-09-09 05:00:00 5.6 6 Nordeste 10 Nordeste 0 -- -- 72
2020-09-09 04:00:00 7.2 3 Sudoeste 12 Nordeste 0 -- -- 65
2020-09-09 03:00:00 6.4 6 Este 10 Sudeste 0 -- -- 65
2020-09-09 02:00:00 6.2 6 Este 10 Este 0 -- -- 68
2020-09-09 01:00:00 7.7 3 Este 8 Este 0 -- -- 62
2020-09-09 00:00:00 10.5 4 Este 11 Sudeste 0 -- -- 52
2020-09-08 23:00:00 13.7 3 Este 15 Sur 0 -- -- 43
2020-09-08 22:00:00 18.7 14 Este 21 Nordeste 0 -- -- 32
2020-09-08 21:00:00 21.2 18 Nordeste 30 Nordeste 0 -- -- 28
2020-09-08 20:00:00 25.1 11 Este 18 Nordeste 0 -- -- 24
2020-09-08 19:00:00 29 12 Nordeste 22 Norte 0 -- -- 19
2020-09-08 18:00:00 28.8 10 Nordeste 22 Este 0 -- -- 19
2020-09-08 17:00:00 28 11 Este 24 Este 0 -- -- 20
2020-09-08 16:00:00 27.2 13 Este 28 Este 0 -- -- 20
2020-09-08 15:00:00 26 9 Este 26 Este 0 -- -- 22
2020-09-08 14:00:00 24.5 14 Este 26 Este 0 -- -- 24
2020-09-08 13:00:00 22.9 5 Sur 15 Este 0 -- -- 31
2020-09-08 12:00:00 20.3 8 Este 20 Nordeste 0 -- -- 38
2020-09-08 11:00:00 17.2 12 Este 18 Este 0 -- -- 45
2020-09-08 10:00:00 14.8 11 Nordeste 20 Norte 0 -- -- 56
2020-09-08 09:00:00 11.2 12 Norte 22 Norte 0 -- -- 65
2020-09-08 08:00:00 6.3 6 Nordeste 17 Este 0 -- -- 81
2020-09-08 07:00:00 7 14 Nordeste 29 Norte 0 -- -- 80
2020-09-08 06:00:00 7.9 21 Norte 29 Nordeste 0 -- -- 78
2020-09-08 05:00:00 8.4 21 Norte 30 Norte 0 -- -- 77
2020-09-08 04:00:00 8.6 20 Norte 26 Norte 0 -- -- 72
2020-09-08 03:00:00 9.4 19 Nordeste 32 Norte 0 -- -- 71
2020-09-08 02:00:00 10.4 17 Norte 36 Norte 0 -- -- 68
2020-09-08 01:00:00 11.6 26 Norte 38 Norte 0 -- -- 62
2020-09-08 00:00:00 12.6 25 Norte 39 Norte 0 -- -- 56
2020-09-07 23:00:00 14 29 Norte 40 Norte 0 -- -- 50
2020-09-07 22:00:00 15.2 27 Norte 38 Nordeste 0 -- -- 46
2020-09-07 21:00:00 16.8 22 Nordeste 34 Nordeste 0 -- -- 42
2020-09-07 20:00:00 19.9 24 Norte 37 Nordeste 0 -- -- 38
2020-09-07 19:00:00 22.7 21 Norte 34 Norte 0 -- -- 33
2020-09-07 18:00:00 23.5 25 Norte 40 Norte 0 -- -- 33
2020-09-07 17:00:00 24.4 21 Norte 39 Norte 0 -- -- 32
2020-09-07 16:00:00 23.6 22 Norte 39 Norte 0 -- -- 34
2020-09-07 15:00:00 23.3 18 Nordeste 32 Norte 0 -- -- 34
2020-09-07 14:00:00 22.1 19 Norte 33 Norte 0 -- -- 38
2020-09-07 13:00:00 20.8 21 Nordeste 39 Norte 0 -- -- 41
2020-09-07 12:00:00 19.3 21 Nordeste 33 Nordeste 0 -- -- 44
2020-09-07 11:00:00 17.6 23 Nordeste 36 Nordeste 0 -- -- 49
2020-09-07 10:00:00 15.5 26 Nordeste 34 Nordeste 0 -- -- 56
2020-09-07 09:00:00 13.7 21 Nordeste 27 Norte 0 -- -- 67
2020-09-07 08:00:00 10.5 13 Norte 23 Norte 0 -- -- 79
2020-09-07 07:00:00 7.4 4 Este 11 Este 0 -- -- 82
2020-09-07 06:00:00 10 8 Este 27 Norte 0 -- -- 76
2020-09-07 05:00:00 11.1 17 Norte 29 Norte 0 -- -- 71
2020-09-07 04:00:00 11 13 Nordeste 22 Nordeste 0 -- -- 73
2020-09-07 03:00:00 11.2 8 Norte 18 Norte 0 -- -- 75
2020-09-07 02:00:00 12.4 8 Nordeste 16 Nordeste 0 -- -- 72
2020-09-07 01:00:00 12.4 10 Este 31 Nordeste 0 -- -- 69
2020-09-07 00:00:00 13.7 26 Norte 42 Norte 0 -- -- 64
2020-09-06 23:00:00 14.5 31 Norte 42 Norte 0 -- -- 61
2020-09-06 22:00:00 15.7 24 Norte 40 Norte 0 -- -- 58
2020-09-06 21:00:00 18 23 Norte 36 Norte 0 -- -- 50
2020-09-06 20:00:00 21.7 23 Norte 36 Norte 0 -- -- 41
2020-09-06 19:00:00 25.3 22 Norte 36 Norte 0 -- -- 36
2020-09-06 18:00:00 27.1 23 Norte 31 Norte 0 -- -- 35
2020-09-06 17:00:00 28.3 19 Norte 32 Norte 0 -- -- 35
2020-09-06 16:00:00 28.6 19 Norte 39 Norte 0 -- -- 36
2020-09-06 15:00:00 28.1 11 Norte 25 Norte 0 -- -- 37
2020-09-06 14:00:00 27.3 14 Noroeste 23 Nordeste 0 -- -- 39
2020-09-06 13:00:00 26.4 11 Norte 21 Nordeste 0 -- -- 42
2020-09-06 12:00:00 24.2 10 Nordeste 19 Nordeste 0 -- -- 48
2020-09-06 11:00:00 21.7 12 Nordeste 19 Este 0 -- -- 54
2020-09-06 10:00:00 17.8 9 Nordeste 25 Nordeste 0 -- -- 67
2020-09-06 09:00:00 14.8 17 Norte 26 Norte 0 -- -- 78
2020-09-06 08:00:00 12.9 19 Norte 26 Norte 0 -- -- 85
2020-09-06 07:00:00 13.2 20 Norte 27 Norte 0 -- -- 84
2020-09-06 06:00:00 13 4 Nordeste 18 Norte 0 -- -- 86
2020-09-06 05:00:00 14 11 Nordeste 33 Norte 0 -- -- 82
2020-09-06 04:00:00 14.6 22 Norte 42 Norte 0 -- -- 79
2020-09-06 03:00:00 15.2 32 Norte 43 Norte 0 -- -- 78
2020-09-06 02:00:00 15.7 28 Norte 37 Norte 0 -- -- 75
2020-09-06 01:00:00 16.3 27 Norte 36 Norte 0 -- -- 71
2020-09-06 00:00:00 17.1 26 Norte 38 Norte 0 -- -- 69
2020-09-05 23:00:00 18.3 24 Norte 44 Norte 0 -- -- 64
2020-09-05 22:00:00 20.4 29 Norte 40 Norte 0 -- -- 56
2020-09-05 21:00:00 22.9 24 Norte 39 Norte 0 -- -- 49
2020-09-05 20:00:00 27 32 Norte 39 Norte 0 -- -- 38
2020-09-05 19:00:00 31.1 24 Norte 34 Norte 0 -- -- 27
2020-09-05 18:00:00 33.7 15 Nordeste 30 Nordeste 0 -- -- 25
2020-09-05 17:00:00 33.8 5 Este 15 Sur 0 -- -- 21
2020-09-05 16:00:00 33.1 12 Norte 26 Este 0 -- -- 21
2020-09-05 15:00:00 32.9 9 Nordeste 21 Nordeste 0 -- -- 22
2020-09-05 14:00:00 32.3 10 Nordeste 19 Norte 0 -- -- 24
2020-09-05 13:00:00 30.5 6 Nordeste 12 Nordeste 0 -- -- 27
2020-09-05 12:00:00 27.6 3 Sur 8 Sudoeste 0 -- -- 32
2020-09-05 11:00:00 25 3 Sudeste 6 Este 0 -- -- 36
2020-09-05 10:00:00 20.9 4 Este 6 Este 0 -- -- 42
2020-09-05 09:00:00 13.7 2 Este 7 Este 0 -- -- 61
2020-09-05 08:00:00 6.2 6 Este 8 Este 0 -- -- 81
2020-09-05 07:00:00 7.2 4 Este 7 Sudeste 0 -- -- 77
2020-09-05 06:00:00 8.8 3 Este 10 Este 0 -- -- 73
2020-09-05 05:00:00 8.1 5 Este 9 Este 0 -- -- 73
2020-09-05 04:00:00 8.8 4 Este 5 Este 0 -- -- 70
2020-09-05 03:00:00 9.6 4 Este 7 Este 0 -- -- 68
2020-09-05 02:00:00 10.6 3 Sudeste 5 Este 0 -- -- 64
2020-09-05 01:00:00 12.4 4 Este 5 Este 0 -- -- 59
2020-09-05 00:00:00 14.4 0 Calma 6 Sur 0 -- -- 52
2020-09-04 23:00:00 18.3 3 Este 10 Este 0 -- -- 41
2020-09-04 22:00:00 19.9 3 Oeste 8 Oeste 0 -- -- 39
2020-09-04 21:00:00 25.5 6 Oeste 18 Noroeste 0 -- -- 28
2020-09-04 20:00:00 32.1 5 Oeste 26 Sur 0 -- -- 23
2020-09-04 19:00:00 33.4 9 Sudoeste 22 Sudoeste 0 -- -- 21
2020-09-04 18:00:00 33.3 12 Sudoeste 25 Sudoeste 0 -- -- 21
2020-09-04 17:00:00 33.9 13 Oeste 28 Sur 0 -- -- 21
2020-09-04 16:00:00 33.5 14 Sudoeste 26 Sur 0 -- -- 21
2020-09-04 15:00:00 32.8 11 Oeste 26 Sudoeste 0 -- -- 23
2020-09-04 14:00:00 31.9 15 Sudoeste 24 Sudoeste 0 -- -- 23
2020-09-04 13:00:00 30.2 12 Sur 37 Sudoeste 0 -- -- 27
2020-09-04 12:00:00 30.4 5 Sudoeste 13 Sudoeste 0 -- -- 30
2020-09-04 11:00:00 27.3 3 Sudeste 12 Sudeste 0 -- -- 34
2020-09-04 10:00:00 23.5 3 Sudeste 7 Este 0 -- -- 37
2020-09-04 09:00:00 13.6 3 Sudeste 8 Este 0 -- -- 55
2020-09-04 08:00:00 6.3 5 Este 7 Este 0 -- -- 70
2020-09-04 07:00:00 6 7 Este 9 Este 0 -- -- 70
2020-09-04 06:00:00 6.2 4 Este 8 Este 0 -- -- 68
2020-09-04 05:00:00 6.8 4 Este 6 Sudeste 0 -- -- 61
2020-09-04 04:00:00 7.8 5 Este 9 Este 0 -- -- 58
2020-09-04 03:00:00 8.3 6 Este 10 Este 0 -- -- 56
2020-09-04 02:00:00 9 9 Este 12 Este 0 -- -- 52
2020-09-04 01:00:00 10.3 4 Este 9 Norte 0 -- -- 50
2020-09-04 00:00:00 11.1 4 Nordeste 8 Este 0 -- -- 46
2020-09-03 23:00:00 13.7 6 Este 14 Este 0 -- -- 44
2020-09-03 22:00:00 18.4 5 Este 8 Este 0 -- -- 29
2020-09-03 21:00:00 20.8 6 Norte 12 Norte 0 -- -- 26
2020-09-03 20:00:00 31.2 7 Norte 14 Nordeste 0 -- -- 15
2020-09-03 19:00:00 32.2 5 Norte 16 Nordeste 0 -- -- 15
2020-09-03 18:00:00 32.3 6 Nordeste 24 Nordeste 0 -- -- 17
2020-09-03 17:00:00 32.5 4 Nordeste 15 Norte 0 -- -- 18
2020-09-03 16:00:00 31.6 8 Norte 16 Norte 0 -- -- 20
2020-09-03 15:00:00 30.3 6 Noroeste 18 Norte 0 -- -- 23
2020-09-03 14:00:00 29.3 8 Norte 18 Nordeste 0 -- -- 25
2020-09-03 13:00:00 28.1 5 Este 15 Nordeste 0 -- -- 26
2020-09-03 12:00:00 26 5 Noroeste 8 Noroeste 0 -- -- 29
2020-09-03 11:00:00 22.8 3 Sur 6 Sur 0 -- -- 36
2020-09-03 10:00:00 17.5 2 Sudeste 7 Sudeste 0 -- -- 49
2020-09-03 09:00:00 10.4 5 Sudeste 8 Sudeste 0 -- -- 74
2020-09-03 08:00:00 4.7 0 Calma 9 Este 0 -- -- 89
2020-09-03 07:00:00 3.4 8 Este 10 Este 0 -- -- 89
2020-09-03 06:00:00 4.8 5 Sudeste 8 Este 0 -- -- 85
2020-09-03 05:00:00 5.1 2 Este 8 Este 0 -- -- 84
2020-09-03 04:00:00 6.3 4 Este 6 Este 0 -- -- 81
2020-09-03 03:00:00 9.1 4 Este 9 Nordeste 0 -- -- 72
2020-09-03 02:00:00 9.8 3 Este 8 Nordeste 0 -- -- 69
2020-09-03 01:00:00 12.5 6 Nordeste 17 Este 0 -- -- 62
2020-09-03 00:00:00 14 5 Este 18 Nordeste 0 -- -- 57
2020-09-02 23:00:00 17.3 14 Nordeste 19 Nordeste 0 -- -- 47
2020-09-02 22:00:00 18.2 16 Norte 18 Norte 0 -- -- 41
2020-09-02 21:00:00 20.6 11 Norte 15 Norte 0 -- -- 36
2020-09-02 20:00:00 27 9 Norte 20 Norte 0 -- -- 27
2020-09-02 19:00:00 28.8 11 Norte 26 Nordeste 0 -- -- 25
2020-09-02 18:00:00 29.7 4 Oeste 23 Norte 0 -- -- 23
2020-09-02 17:00:00 29.1 5 Norte 21 Norte 0 -- -- 24
2020-09-02 16:00:00 27.3 8 Noroeste 22 Noroeste 0 -- -- 27
2020-09-02 15:00:00 26.9 9 Norte 25 Nordeste 0 -- -- 29
2020-09-02 14:00:00 26.4 12 Norte 22 Norte 0 -- -- 29
2020-09-02 13:00:00 25.8 12 Norte 27 Nordeste 0 -- -- 31
2020-09-02 12:00:00 24 8 Este 17 Este 0 -- -- 33
2020-09-02 11:00:00 21.5 9 Nordeste 17 Nordeste 0 -- -- 40
2020-09-02 10:00:00 18.3 10 Nordeste 18 Nordeste 0 -- -- 48
2020-09-02 09:00:00 14 6 Este 16 Nordeste 0 -- -- 60
2020-09-02 08:00:00 10.2 6 Este 14 Este 0 -- -- 72
2020-09-02 07:00:00 10.3 6 Nordeste 31 Norte 0 -- -- 71
2020-09-02 06:00:00 11.1 22 Norte 28 Norte 0 -- -- 69
2020-09-02 05:00:00 11.7 21 Norte 29 Norte 0 -- -- 67
2020-09-02 04:00:00 12.2 23 Norte 31 Norte 0 -- -- 67
2020-09-02 03:00:00 12.9 21 Norte 29 Norte 0 -- -- 65
2020-09-02 02:00:00 13.5 21 Norte 33 Norte 0 -- -- 63
2020-09-02 01:00:00 14.6 22 Norte 31 Norte 0 -- -- 58
2020-09-02 00:00:00 16.3 24 Nordeste 35 Norte 0 -- -- 51
2020-09-01 23:00:00 17.6 23 Nordeste 34 Nordeste 0 -- -- 45
2020-09-01 22:00:00 18.9 22 Nordeste 28 Norte 0 -- -- 36
2020-09-01 21:00:00 20.4 12 Norte 17 Nordeste 0 -- -- 32
2020-09-01 20:00:00 22.8 10 Norte 14 Norte 0 -- -- 29
2020-09-01 19:00:00 27.6 9 Norte 21 Norte 0 -- -- 22
2020-09-01 18:00:00 26.9 9 Nordeste 19 Norte 0 -- -- 23
2020-09-01 17:00:00 26.6 9 Noroeste 20 Norte 0 -- -- 23
2020-09-01 16:00:00 26.5 9 Sudeste 18 Nordeste 0 -- -- 22
2020-09-01 15:00:00 26.7 4 Oeste 19 Nordeste 0 -- -- 22
2020-09-01 14:00:00 25.8 8 Sudeste 16 Sudoeste 0 -- -- 23
2020-09-01 13:00:00 24.9 9 Este 22 Nordeste 0 -- -- 26
2020-09-01 12:00:00 22.1 4 Sur 9 Sudeste 0 -- -- 34
2020-09-01 11:00:00 18 6 Sudeste 14 Este 0 -- -- 42
2020-09-01 10:00:00 15.8 8 Este 15 Este 0 -- -- 50
2020-09-01 09:00:00 11.9 0 Calma 8 Sudeste 0 -- -- 70
2020-09-01 08:00:00 9.8 5 Este 11 Este 0 -- -- 71
2020-09-01 07:00:00 9.5 3 Este 12 Este 0 -- -- 75
2020-09-01 06:00:00 8.8 2 Sudoeste 9 Sudeste 0 -- -- 77
2020-09-01 05:00:00 8.5 7 Sudeste 9 Sudeste 0 -- -- 67
2020-09-01 04:00:00 7.7 0 Calma 4 Este 0 -- -- 70
2020-09-01 03:00:00 7.9 4 Sudeste 8 Este 0 -- -- 66
2020-09-01 02:00:00 7.4 6 Este 9 Este 0 -- -- 64
2020-09-01 01:00:00 7.8 6 Este 11 Este 0 -- -- 59
2020-09-01 00:00:00 8.5 4 Sudeste 9 Este 0 -- -- 56
2020-08-31 23:00:00 9.6 6 Este 8 Sudeste 0 -- -- 55
2020-08-31 22:00:00 12.2 3 Sudoeste 8 Noroeste 0 -- -- 45
2020-08-31 21:00:00 17.5 5 Noroeste 14 Noroeste 0 -- -- 32
2020-08-31 20:00:00 23 10 Oeste 20 Noroeste 0 -- -- 25
2020-08-31 19:00:00 24.5 9 Oeste 20 Oeste 0 -- -- 23
2020-08-31 18:00:00 23.9 10 Oeste 24 Oeste 0 -- -- 24
2020-08-31 17:00:00 24.7 12 Oeste 26 Oeste 0 -- -- 23
2020-08-31 16:00:00 23.2 15 Oeste 26 Noroeste 0 -- -- 25
2020-08-31 15:00:00 23.5 5 Oeste 24 Oeste 0 -- -- 25
2020-08-31 14:00:00 22.3 12 Oeste 21 Sudoeste 0 -- -- 27
2020-08-31 13:00:00 22.3 6 Este 16 Nordeste 0 -- -- 29
2020-08-31 12:00:00 21.3 6 Nordeste 13 Este 0 -- -- 31
2020-08-31 11:00:00 19 2 Sur 9 Este 0 -- -- 41
2020-08-31 10:00:00 13.1 5 Este 8 Este 0 -- -- 56
2020-08-31 09:00:00 8.9 0 Calma 3 Sudeste 0 -- -- 73
2020-08-31 08:00:00 0.6 3 Este 7 Este 0 -- -- 96
2020-08-31 07:00:00 0.5 6 Este 8 Este 0 -- -- 95
2020-08-31 06:00:00 1.1 5 Sudeste 10 Este 0 -- -- 93
2020-08-31 05:00:00 3 2 Este 9 Este 0 -- -- 96
2020-08-31 04:00:00 3.4 5 Este 9 Este 0 -- -- 93
2020-08-31 03:00:00 4.2 6 Este 10 Nordeste 0 -- -- 85
2020-08-31 02:00:00 6.5 0 Calma 12 Nordeste 0 -- -- 81
2020-08-31 01:00:00 8.2 10 Este 19 Nordeste 0 -- -- 77
2020-08-31 00:00:00 10.1 13 Nordeste 27 Norte 0 -- -- 68
2020-08-30 23:00:00 12.2 18 Nordeste 26 Nordeste 0 -- -- 58
2020-08-30 22:00:00 12.4 16 Nordeste 21 Norte 0 -- -- 55
2020-08-30 21:00:00 15 12 Nordeste 23 Nordeste 0 -- -- 45
2020-08-30 20:00:00 19 13 Nordeste 26 Nordeste 0 -- -- 35
2020-08-30 19:00:00 20.1 14 Norte 28 Norte 0 -- -- 32
2020-08-30 18:00:00 21.5 15 Nordeste 28 Nordeste 0 -- -- 31
2020-08-30 17:00:00 19.4 10 Norte 24 Norte 0 -- -- 37
2020-08-30 16:00:00 20.7 12 Norte 27 Norte 0 -- -- 34
2020-08-30 15:00:00 18.9 13 Nordeste 25 Norte 0 -- -- 40
2020-08-30 14:00:00 17.2 9 Nordeste 17 Norte 0 -- -- 45
2020-08-30 13:00:00 15.5 9 Norte 23 Norte 0 -- -- 50
2020-08-30 12:00:00 15 13 Norte 24 Norte 0 -- -- 54
2020-08-30 11:00:00 15.3 14 Nordeste 21 Nordeste 0 -- -- 54
2020-08-30 10:00:00 12.6 2 Este 6 Sur 0 -- -- 66
2020-08-30 09:00:00 7.2 3 Este 4 Nordeste 0 -- -- 83
2020-08-30 08:00:00 0.2 2 Este 6 Este 0 -- -- 96
2020-08-30 07:00:00 0.6 3 Sur 6 Sudeste 0 -- -- 98
2020-08-30 06:00:00 -0.1 2 Sudeste 2 Sudeste 0 -- -- 96
2020-08-30 05:00:00 1.8 0 Calma 2 Sur 0 -- -- 96
2020-08-30 04:00:00 3 0 Calma 2 Sur 0 -- -- 93
2020-08-30 03:00:00 4.8 0 Calma 6 Norte 0 -- -- 88
2020-08-30 02:00:00 5.9 0 Calma 9 Nordeste 0 -- -- 89
2020-08-30 01:00:00 7.7 5 Nordeste 13 Nordeste 0 -- -- 80
2020-08-30 00:00:00 9.8 10 Nordeste 27 Nordeste 0 -- -- 75
2020-08-29 23:00:00 11.1 13 Norte 36 Norte 0 -- -- 74
2020-08-29 22:00:00 12.7 22 Norte 33 Nordeste 0 -- -- 66
2020-08-29 21:00:00 14.7 27 Nordeste 43 Norte 0 -- -- 59
2020-08-29 20:00:00 17.8 22 Noroeste 36 Oeste 0 -- -- 46
2020-08-29 19:00:00 18.2 20 Noroeste 38 Norte 0 -- -- 41
2020-08-29 18:00:00 21.2 26 Norte 38 Noroeste 0 -- -- 33
2020-08-29 17:00:00 21.4 22 Noroeste 41 Noroeste 0 -- -- 33
2020-08-29 16:00:00 22.1 20 Noroeste 36 Noroeste 0 -- -- 34
2020-08-29 15:00:00 20.4 21 Noroeste 37 Noroeste 0 -- -- 38
2020-08-29 14:00:00 20.4 19 Noroeste 37 Oeste 0 -- -- 37
2020-08-29 13:00:00 19.7 14 Noroeste 42 Noroeste 0 -- -- 41
2020-08-29 12:00:00 17.1 18 Noroeste 27 Noroeste 0 -- -- 48
2020-08-29 11:00:00 16 7 Oeste 14 Oeste 0 -- -- 54
2020-08-29 10:00:00 15.2 4 Noroeste 9 Oeste 0 -- -- 54
2020-08-29 09:00:00 12.4 0 Calma 3 Sudeste 0 -- -- 72
2020-08-29 08:00:00 4 2 Sur 7 Este 0 -- -- 93
2020-08-29 07:00:00 5.5 3 Sudeste 6 Nordeste 0 -- -- 93
2020-08-29 06:00:00 6.7 0 Calma 14 Norte 0 -- -- 87
2020-08-29 05:00:00 8.7 10 Noroeste 13 Noroeste 0 -- -- 81
2020-08-29 04:00:00 11 0 Calma 13 Norte 0 -- -- 74
2020-08-29 03:00:00 11.5 5 Noroeste 13 Norte 0 -- -- 73
2020-08-29 02:00:00 12.4 9 Norte 15 Nordeste 0 -- -- 70
2020-08-29 01:00:00 12.2 5 Nordeste 21 Norte 0 -- -- 72
2020-08-29 00:00:00 13.1 14 Norte 35 Norte 0 -- -- 69
2020-08-28 23:00:00 14.4 28 Norte 39 Norte 0 -- -- 70
2020-08-28 22:00:00 16.5 25 Norte 39 Noroeste 0 -- -- 66
2020-08-28 21:00:00 21.7 12 Noroeste 35 Oeste 0 -- -- 36
2020-08-28 20:00:00 25.5 17 Oeste 33 Oeste 0 -- -- 21
2020-08-28 19:00:00 27.2 17 Oeste 32 Oeste 0 -- -- 25
2020-08-28 18:00:00 27.7 18 Oeste 36 Oeste 0 -- -- 25
2020-08-28 17:00:00 28 19 Oeste 35 Sudoeste 0 -- -- 22
2020-08-28 16:00:00 27.6 13 Oeste 33 Oeste 0 -- -- 34
2020-08-28 15:00:00 26 15 Oeste 30 Oeste 0 -- -- 38
2020-08-28 14:00:00 25.3 14 Oeste 27 Sur 0 -- -- 42
2020-08-28 13:00:00 23.5 15 Sudoeste 25 Oeste 0 -- -- 53
2020-08-28 12:00:00 23 11 Oeste 22 Sudoeste 0 -- -- 56
2020-08-28 11:00:00 22.3 12 Oeste 23 Oeste 0 -- -- 60
2020-08-28 10:00:00 19.4 11 Sudoeste 18 Sudoeste 0 -- -- 69
2020-08-28 09:00:00 15 0 Calma 2 Oeste 0 -- -- 87
2020-08-28 08:00:00 10.2 0 Calma 2 Sur 0 -- -- 92
2020-08-28 07:00:00 11.6 0 Calma 6 Este 0 -- -- 90
2020-08-28 06:00:00 12.9 3 Oeste 8 Oeste 0 -- -- 81
2020-08-28 05:00:00 13.9 3 Sudoeste 5 Sudoeste 0 -- -- 78
2020-08-28 04:00:00 14.8 2 Sudoeste 4 Oeste 0 -- -- 75
2020-08-28 03:00:00 16.3 0 Calma 8 Oeste 0 -- -- 69
2020-08-28 02:00:00 21 5 Oeste 15 Noroeste 0 -- -- 57
2020-08-28 01:00:00 23.2 16 Noroeste 30 Noroeste 0 -- -- 50
2020-08-28 00:00:00 24.3 21 Noroeste 29 Noroeste 0 -- -- 43
2020-08-27 23:00:00 19.9 3 Sudoeste 16 Noroeste 0 -- -- 49
2020-08-27 22:00:00 22.3 3 Oeste 12 Noroeste 0 -- -- 45
2020-08-27 21:00:00 27.2 8 Noroeste 14 Oeste 0 -- -- 30
2020-08-27 20:00:00 32.2 9 Oeste 26 Oeste 0 -- -- 26
2020-08-27 19:00:00 33.5 11 Oeste 26 Oeste 0 -- -- 23
2020-08-27 18:00:00 33.9 17 Oeste 28 Oeste 0 -- -- 23
2020-08-27 17:00:00 34 11 Oeste 25 Oeste 0 -- -- 25
2020-08-27 16:00:00 33.3 12 Noroeste 26 Oeste 0 -- -- 24
2020-08-27 15:00:00 32.8 8 Sudoeste 23 Noroeste 0 -- -- 33
2020-08-27 14:00:00 32 9 Noroeste 21 Oeste 0 -- -- 33
2020-08-27 13:00:00 30.2 8 Oeste 18 Oeste 0 -- -- 37
2020-08-27 12:00:00 27.8 8 Sudoeste 16 Oeste 0 -- -- 40
2020-08-27 11:00:00 26.5 5 Sudoeste 9 Sudoeste 0 -- -- 41
2020-08-27 10:00:00 22.7 2 Oeste 5 Sudoeste 0 -- -- 46
2020-08-27 09:00:00 16.9 0 Calma 4 Este 0 -- -- 58
2020-08-27 08:00:00 8.7 3 Sudeste 4 Sudeste 0 -- -- 81
2020-08-27 07:00:00 8.8 2 Este 6 Este 0 -- -- 80
2020-08-27 06:00:00 9 5 Este 6 Este 0 -- -- 78
2020-08-27 05:00:00 10 3 Este 7 Este 0 -- -- 72
2020-08-27 04:00:00 10.4 3 Este 7 Este 0 -- -- 71
2020-08-27 03:00:00 10.9 3 Este 4 Este 0 -- -- 71
2020-08-27 02:00:00 13.8 2 Sudeste 8 Este 0 -- -- 61
2020-08-27 01:00:00 14.4 6 Este 8 Sudeste 0 -- -- 58
2020-08-27 00:00:00 15.7 7 Este 12 Este 0 -- -- 55
2020-08-26 23:00:00 17.9 5 Sudeste 13 Oeste 0 -- -- 50
2020-08-26 22:00:00 22.9 6 Oeste 11 Oeste 0 -- -- 41
2020-08-26 21:00:00 27.8 7 Oeste 18 Oeste 0 -- -- 27
2020-08-26 20:00:00 32.8 12 Oeste 23 Oeste 0 -- -- 22
2020-08-26 19:00:00 34.5 10 Oeste 28 Oeste 0 -- -- 22
2020-08-26 18:00:00 34.6 11 Oeste 27 Oeste 0 -- -- 22
2020-08-26 17:00:00 34.2 14 Oeste 24 Oeste 0 -- -- 23
2020-08-26 16:00:00 34.1 11 Oeste 27 Sudoeste 0 -- -- 24
2020-08-26 15:00:00 33.2 8 Sudoeste 21 Oeste 0 -- -- 25
2020-08-26 14:00:00 32.6 5 Norte 17 Oeste 0 -- -- 25
2020-08-26 13:00:00 31.5 5 Sudoeste 11 Sudoeste 0 -- -- 29
2020-08-26 12:00:00 28.7 3 Sur 10 Sudoeste 0 -- -- 34
2020-08-26 11:00:00 26.1 4 Sudeste 8 Este 0 -- -- 38
2020-08-26 10:00:00 20.8 3 Sudeste 8 Sudeste 0 -- -- 47
2020-08-26 09:00:00 15 0 Calma 5 Este 0 -- -- 61
2020-08-26 08:00:00 7.2 5 Este 6 Sudeste 0 -- -- 83
2020-08-26 07:00:00 6.9 2 Este 6 Sudeste 0 -- -- 82
2020-08-26 06:00:00 8.1 0 Calma 5 Este 0 -- -- 80
2020-08-26 05:00:00 9.5 4 Este 6 Este 0 -- -- 76
2020-08-26 04:00:00 10 5 Sudeste 8 Este 0 -- -- 74
2020-08-26 03:00:00 10.9 5 Nordeste 12 Nordeste 0 -- -- 70
2020-08-26 02:00:00 12.1 0 Calma 13 Nordeste 0 -- -- 70
2020-08-26 01:00:00 13.6 0 Calma 8 Nordeste 0 -- -- 62
2020-08-26 00:00:00 16.5 4 Este 11 Sudeste 0 -- -- 51
2020-08-25 23:00:00 20.6 4 Sur 20 Norte 0 -- -- 42
2020-08-25 22:00:00 25.9 18 Noroeste 19 Noroeste 0 -- -- 30
2020-08-25 21:00:00 28.3 6 Oeste 18 Sudoeste 0 -- -- 25
2020-08-25 20:00:00 33.5 10 Oeste 21 Sudoeste 0 -- -- 21
2020-08-25 19:00:00 34.4 13 Oeste 24 Oeste 0 -- -- 20
2020-08-25 18:00:00 34.9 11 Oeste 28 Oeste 0 -- -- 19
2020-08-25 17:00:00 34.8 14 Oeste 31 Sudoeste 0 -- -- 19
2020-08-25 16:00:00 33.8 18 Oeste 30 Oeste 0 -- -- 21
2020-08-25 15:00:00 33 13 Sudoeste 33 Sur 0 -- -- 23
2020-08-25 14:00:00 32.2 13 Oeste 25 Oeste 0 -- -- 24
2020-08-25 13:00:00 31.3 9 Noroeste 17 Oeste 0 -- -- 27
2020-08-25 12:00:00 30.8 4 Noroeste 8 Noroeste 0 -- -- 28
2020-08-25 11:00:00 26.8 5 Sudoeste 8 Oeste 0 -- -- 34
2020-08-25 10:00:00 23.8 2 Sudeste 4 Sur 0 -- -- 40
2020-08-25 09:00:00 16.5 0 Calma 8 Sudeste 0 -- -- 59
2020-08-25 08:00:00 7.5 6 Este 8 Este 0 -- -- 86
2020-08-25 07:00:00 6.9 4 Este 6 Sudeste 0 -- -- 84
2020-08-25 06:00:00 7.5 4 Este 6 Este 0 -- -- 81
2020-08-25 05:00:00 8 5 Este 8 Este 0 -- -- 81
2020-08-25 04:00:00 8.6 4 Sudeste 7 Sudeste 0 -- -- 79
2020-08-25 03:00:00 9.6 2 Este 5 Este 0 -- -- 73
2020-08-25 02:00:00 10.8 4 Este 9 Este 0 -- -- 72
2020-08-25 01:00:00 12.8 7 Este 11 Este 0 -- -- 63
2020-08-25 00:00:00 15.4 3 Sudeste 11 Sudeste 0 -- -- 54
2020-08-24 23:00:00 19.2 8 Este 12 Este 0 -- -- 43
2020-08-24 22:00:00 19.3 4 Sudeste 15 Noroeste 0 -- -- 48
2020-08-24 21:00:00 24.9 5 Oeste 10 Sudoeste 0 -- -- 36
2020-08-24 20:00:00 30.8 6 Oeste 20 Sudoeste 0 -- -- 25
2020-08-24 19:00:00 31.4 11 Oeste 21 Oeste 0 -- -- 23
2020-08-24 18:00:00 32.6 8 Norte 18 Noroeste 0 -- -- 24
2020-08-24 17:00:00 31.3 11 Noroeste 20 Noroeste 0 -- -- 26
2020-08-24 16:00:00 30.3 9 Noroeste 20 Noroeste 0 -- -- 28
2020-08-24 15:00:00 29.8 9 Noroeste 19 Noroeste 0 -- -- 29
2020-08-24 14:00:00 29.2 8 Este 16 Nordeste 0 -- -- 32
2020-08-24 13:00:00 27.8 8 Norte 27 Nordeste 0 -- -- 35
2020-08-24 12:00:00 25.8 8 Norte 19 Norte 0 -- -- 40
2020-08-24 11:00:00 23.6 10 Nordeste 18 Este 0 -- -- 45
2020-08-24 10:00:00 19.1 4 Este 9 Este 0 -- -- 60
2020-08-24 09:00:00 14.2 5 Sudeste 8 Sudeste 0 -- -- 78
2020-08-24 08:00:00 9.7 5 Este 12 Este 0 -- -- 89
2020-08-24 07:00:00 11.2 6 Este 11 Este 0 -- -- 87
2020-08-24 06:00:00 10.4 6 Sudeste 14 Nordeste 0 -- -- 87
2020-08-24 05:00:00 13.6 6 Este 14 Sudeste 0 -- -- 78
2020-08-24 04:00:00 13.1 7 Este 13 Este 0 -- -- 79
2020-08-24 03:00:00 14.2 4 Este 14 Nordeste 0 -- -- 73
2020-08-24 02:00:00 13.2 0 Calma 9 Este 0 -- -- 75
2020-08-24 01:00:00 15.3 8 Este 15 Norte 0 -- -- 63
2020-08-24 00:00:00 18.1 9 Nordeste 22 Nordeste 0 -- -- 54
2020-08-23 23:00:00 19.6 15 Nordeste 22 Nordeste 0 -- -- 44
2020-08-23 22:00:00 20.5 17 Norte 29 Norte 0 -- -- 39
2020-08-23 21:00:00 24.4 15 Norte 19 Norte 0 -- -- 30
2020-08-23 20:00:00 28.7 12 Norte 21 Norte 0 -- -- 23
2020-08-23 19:00:00 30.8 9 Norte 19 Nordeste 0 -- -- 21
2020-08-23 18:00:00 31.6 4 Norte 21 Norte 0 -- -- 23
2020-08-23 17:00:00 30.5 6 Norte 23 Nordeste 0 -- -- 25
2020-08-23 16:00:00 29.6 6 Sudoeste 22 Norte 0 -- -- 25
2020-08-23 15:00:00 29 12 Nordeste 24 Norte 0 -- -- 29
2020-08-23 14:00:00 28.3 10 Nordeste 25 Norte 0 -- -- 31
2020-08-23 13:00:00 27.3 10 Nordeste 21 Norte 0 -- -- 33
2020-08-23 12:00:00 26 5 Nordeste 13 Nordeste 0 -- -- 37
2020-08-23 11:00:00 23 4 Sur 8 Este 0 -- -- 54
2020-08-23 10:00:00 19.3 4 Sudeste 9 Este 0 -- -- 67
2020-08-23 09:00:00 12.9 7 Sudeste 11 Este 0 -- -- 89
2020-08-23 08:00:00 7.9 7 Este 12 Nordeste 0 -- -- 98
2020-08-23 07:00:00 5.7 4 Sudeste 8 Sudeste 0 -- -- 98
2020-08-23 06:00:00 6.7 2 Sudeste 9 Sudeste 0 -- -- 97
2020-08-23 05:00:00 11.5 9 Este 15 Nordeste 0 -- -- 81
2020-08-23 04:00:00 12.4 5 Este 15 Nordeste 0 -- -- 90
2020-08-23 03:00:00 11.6 6 Nordeste 14 Este 0 -- -- 84
2020-08-23 02:00:00 10.9 7 Nordeste 9 Nordeste 0 -- -- 73
2020-08-23 01:00:00 14.3 6 Este 21 Norte 0 -- -- 53
2020-08-23 00:00:00 16.8 5 Noroeste 22 Norte 0 -- -- 43
2020-08-22 23:00:00 19.2 19 Norte 22 Norte 0 -- -- 35
2020-08-22 22:00:00 20.6 13 Noroeste 21 Noroeste 0 -- -- 33
2020-08-22 21:00:00 23.3 5 Oeste 18 Oeste 0 -- -- 33
2020-08-22 20:00:00 28.4 10 Oeste 19 Oeste 0 -- -- 24
2020-08-22 19:00:00 30 7 Noroeste 22 Oeste 0 -- -- 23
2020-08-22 18:00:00 29.9 10 Oeste 30 Oeste 0 -- -- 23
2020-08-22 17:00:00 29.8 10 Oeste 21 Oeste 0 -- -- 26
2020-08-22 16:00:00 29 6 Noroeste 21 Noroeste 0 -- -- 31
2020-08-22 15:00:00 28.1 9 Noroeste 20 Oeste 0 -- -- 29
2020-08-22 14:00:00 27.2 7 Noroeste 19 Noroeste 0 -- -- 35
2020-08-22 13:00:00 25.5 7 Sur 14 Este 0 -- -- 41
2020-08-22 12:00:00 24.6 5 Nordeste 10 Nordeste 0 -- -- 43
2020-08-22 11:00:00 22.6 3 Sur 7 Oeste 0 -- -- 51
2020-08-22 10:00:00 19.9 0 Calma 5 Sur 0 -- -- 57
2020-08-22 09:00:00 13.6 3 Nordeste 5 Este 0 -- -- 74
2020-08-22 08:00:00 6.9 0 Calma 3 Este 0 -- -- 95
2020-08-22 07:00:00 6.3 0 Calma 2 Sudeste 0 -- -- 97
2020-08-22 06:00:00 6.8 0 Calma 3 Sudeste 0 -- -- 93
2020-08-22 05:00:00 9 2 Nordeste 5 Norte 0 -- -- 90
2020-08-22 04:00:00 9.4 2 Este 4 Este 0 -- -- 90
2020-08-22 03:00:00 10.8 4 Este 5 Este 0 -- -- 86
2020-08-22 02:00:00 11.9 3 Este 5 Este 0 -- -- 81
2020-08-22 01:00:00 13.1 0 Calma 9 Oeste 0 -- -- 76
2020-08-22 00:00:00 16.7 4 Oeste 8 Oeste 0 -- -- 61
2020-08-21 23:00:00 19 3 Sudoeste 15 Oeste 0 -- -- 57
2020-08-21 22:00:00 21.5 9 Noroeste 15 Oeste 0 -- -- 59
2020-08-21 21:00:00 23.5 6 Oeste 21 Noroeste 0 -- -- 60
2020-08-21 20:00:00 24.3 11 Oeste 21 Oeste 0 -- -- 59
2020-08-21 19:00:00 25 14 Oeste 31 Oeste 0 -- -- 60
2020-08-21 18:00:00 24.6 18 Oeste 38 Oeste 0 -- -- 63
2020-08-21 17:00:00 26.1 21 Oeste 35 Oeste 0 -- -- 58
2020-08-21 16:00:00 26.2 17 Oeste 33 Oeste 0 -- -- 58
2020-08-21 15:00:00 27 21 Oeste 33 Oeste 0 -- -- 55
2020-08-21 14:00:00 26.7 18 Oeste 28 Oeste 0 -- -- 55
2020-08-21 13:00:00 26.3 13 Sudoeste 30 Oeste 0 -- -- 56
2020-08-21 12:00:00 26.6 14 Sudoeste 24 Sur 0 -- -- 56
2020-08-21 11:00:00 25.2 11 Sudoeste 24 Oeste 0 -- -- 62
2020-08-21 10:00:00 24.9 3 Sur 9 Sur 0 -- -- 62
2020-08-21 09:00:00 20.6 3 Este 6 Nordeste 0 -- -- 75
2020-08-21 08:00:00 15 4 Nordeste 8 Este 0 -- -- 96
2020-08-21 07:00:00 14.3 4 Este 9 Este 0 -- -- 95
2020-08-21 06:00:00 14.3 6 Este 8 Este 0 -- -- 95
2020-08-21 05:00:00 14.2 2 Este 6 Norte 0 -- -- 93
2020-08-21 04:00:00 15.9 2 Nordeste 7 Sudeste 0 -- -- 90
2020-08-21 03:00:00 18.2 4 Sudeste 5 Sudeste 0 -- -- 85
2020-08-21 02:00:00 17.9 3 Noroeste 10 Noroeste 0 -- -- 86
2020-08-21 01:00:00 17.2 2 Norte 25 Oeste 0 -- -- 83
2020-08-21 00:00:00 20.1 13 Noroeste 24 Noroeste 0 -- -- 76
2020-08-20 23:00:00 20.6 10 Oeste 21 Oeste 0 -- -- 60
2020-08-20 22:00:00 20.8 2 Noroeste 15 Sudoeste 0 -- -- 43
2020-08-20 21:00:00 26.6 9 Sudoeste 30 Sudoeste 0 -- -- 31
2020-08-20 20:00:00 29.5 13 Sudoeste 38 Sur 0 -- -- 26
2020-08-20 19:00:00 30.6 16 Sur 39 Sur 0 -- -- 17
2020-08-20 18:00:00 33.2 18 Sudoeste 45 Sur 0 -- -- 14
2020-08-20 17:00:00 31.5 24 Sur 44 Sur 0 -- -- 16
2020-08-20 16:00:00 32.1 22 Sur 45 Sur 0 -- -- 15
2020-08-20 15:00:00 31.5 23 Sur 42 Sur 0 -- -- 16
2020-08-20 14:00:00 31.4 9 Sudoeste 22 Oeste 0 -- -- 18
2020-08-20 13:00:00 27.7 10 Oeste 21 Sudoeste 0 -- -- 21
2020-08-20 12:00:00 28.2 12 Oeste 22 Sudoeste 0 -- -- 20
2020-08-20 11:00:00 26.6 5 Sudoeste 16 Sudoeste 0 -- -- 26
2020-08-20 10:00:00 22.9 4 Este 9 Sudeste 0 -- -- 37
2020-08-20 09:00:00 16.5 4 Sudeste 9 Este 0 -- -- 56
2020-08-20 08:00:00 9.4 6 Este 8 Este 0 -- -- 75
2020-08-20 07:00:00 6.6 5 Este 10 Este 0 -- -- 80
2020-08-20 06:00:00 6.7 3 Sudeste 6 Este 0 -- -- 76
2020-08-20 05:00:00 7.2 2 Este 5 Este 0 -- -- 72
2020-08-20 04:00:00 8.3 5 Este 6 Este 0 -- -- 71
2020-08-20 03:00:00 8.4 0 Calma 6 Sudeste 0 -- -- 72
2020-08-20 02:00:00 9.2 3 Este 7 Sudeste 0 -- -- 66
2020-08-20 01:00:00 12.3 3 Oeste 7 Nordeste 0 -- -- 58
2020-08-20 00:00:00 12.7 0 Calma 8 Sur 0 -- -- 56